createdAt,value
2019-03-30T00:00:57.764Z,5.00
2019-03-30T00:03:28.384Z,5.00
2019-03-30T00:05:58.576Z,4.90
2019-03-30T00:08:28.962Z,4.90
2019-03-30T00:10:59.464Z,4.70
2019-03-30T00:13:30.023Z,4.70
2019-03-30T00:16:00.334Z,4.70
2019-03-30T00:18:30.841Z,4.80
2019-03-30T00:21:01.264Z,4.80
2019-03-30T00:23:31.443Z,4.80
2019-03-30T00:26:01.910Z,4.80
2019-03-30T00:28:32.336Z,4.80
2019-03-30T00:31:02.771Z,4.60
2019-03-30T00:33:33.079Z,4.60
2019-03-30T00:36:03.779Z,4.50
2019-03-30T00:38:34.166Z,4.40
2019-03-30T00:41:04.754Z,4.40
2019-03-30T00:43:35.086Z,4.50
2019-03-30T00:46:05.538Z,4.50
2019-03-30T00:48:36.076Z,4.50
2019-03-30T00:51:06.454Z,4.50
2019-03-30T00:53:36.907Z,4.50
2019-03-30T00:56:07.161Z,4.40
2019-03-30T00:58:37.764Z,4.50
2019-03-30T01:01:08.334Z,4.40
2019-03-30T01:03:38.728Z,4.40
2019-03-30T01:06:09.040Z,4.30
2019-03-30T01:08:39.905Z,4.20
2019-03-30T01:11:10.146Z,4.20
2019-03-30T01:13:40.403Z,4.00
2019-03-30T01:16:10.945Z,3.90
2019-03-30T01:18:41.578Z,4.00
2019-03-30T01:21:12.229Z,4.00
2019-03-30T01:23:42.827Z,4.00
2019-03-30T01:26:13.647Z,4.00
2019-03-30T01:28:44.237Z,4.00
2019-03-30T01:31:14.618Z,3.90
2019-03-30T01:33:45.281Z,3.80
2019-03-30T01:36:15.710Z,3.70
2019-03-30T01:38:46.100Z,3.70
2019-03-30T01:41:16.547Z,3.60
2019-03-30T01:43:47.307Z,3.60
2019-03-30T01:46:17.923Z,3.60
2019-03-30T01:48:48.427Z,3.60
2019-03-30T01:51:18.947Z,3.60
2019-03-30T01:53:49.395Z,3.60
2019-03-30T01:56:19.826Z,3.50
2019-03-30T01:58:50.336Z,3.60
2019-03-30T02:01:20.929Z,3.60
2019-03-30T02:03:51.405Z,3.60
2019-03-30T02:06:22.046Z,3.60
2019-03-30T02:08:52.576Z,3.40
2019-03-30T02:11:23.075Z,3.40
2019-03-30T02:13:53.679Z,3.40
2019-03-30T02:16:24.034Z,3.30
2019-03-30T02:18:54.353Z,3.20
2019-03-30T02:21:24.735Z,3.30
2019-03-30T02:23:55.199Z,3.30
2019-03-30T02:26:25.615Z,3.40
2019-03-30T02:28:56.062Z,3.40
2019-03-30T02:31:26.619Z,3.40
2019-03-30T02:33:57.025Z,3.30
2019-03-30T02:36:30.639Z,3.30
2019-03-30T02:39:01.131Z,3.30
2019-03-30T02:41:31.695Z,3.30
2019-03-30T02:44:02.009Z,3.40
2019-03-30T02:46:32.316Z,3.30
2019-03-30T02:49:02.628Z,3.40
2019-03-30T02:51:33.315Z,3.40
2019-03-30T02:54:03.853Z,3.40
2019-03-30T02:56:34.436Z,3.30
2019-03-30T02:59:04.804Z,3.30
2019-03-30T03:01:35.302Z,3.20
2019-03-30T03:04:05.693Z,3.10
2019-03-30T03:06:37.072Z,3.10
2019-03-30T03:09:09.604Z,3.00
2019-03-30T03:11:40.510Z,3.00
2019-03-30T03:14:10.885Z,3.00
2019-03-30T03:16:41.334Z,3.10
2019-03-30T03:19:11.748Z,3.10
2019-03-30T03:21:42.175Z,3.10
2019-03-30T03:24:12.718Z,3.10
2019-03-30T03:26:43.070Z,3.10
2019-03-30T03:29:13.513Z,3.10
2019-03-30T03:31:44.015Z,3.10
2019-03-30T03:34:14.450Z,3.10
2019-03-30T03:36:44.835Z,3.10
2019-03-30T03:39:15.244Z,3.10
2019-03-30T03:41:45.610Z,3.10
2019-03-30T03:44:16.142Z,3.10
2019-03-30T03:46:46.671Z,3.10
2019-03-30T03:49:17.091Z,3.00
2019-03-30T03:51:47.592Z,2.80
2019-03-30T03:54:18.837Z,2.70
2019-03-30T03:56:51.339Z,2.60
2019-03-30T03:59:23.101Z,2.50
2019-03-30T04:01:55.220Z,2.50
2019-03-30T04:04:27.779Z,2.50
2019-03-30T04:07:01.730Z,2.40
2019-03-30T04:09:34.938Z,2.40
2019-03-30T04:12:08.338Z,2.30
2019-03-30T04:14:41.733Z,2.40
2019-03-30T04:17:12.254Z,2.40
2019-03-30T04:19:42.667Z,2.30
2019-03-30T04:22:13.070Z,2.30
2019-03-30T04:24:43.632Z,2.30
2019-03-30T04:27:14.162Z,2.20
2019-03-30T04:29:44.561Z,2.20
2019-03-30T04:32:14.898Z,2.30
2019-03-30T04:34:45.425Z,2.30
2019-03-30T04:37:15.936Z,2.20
2019-03-30T04:39:46.262Z,2.20
2019-03-30T04:42:16.732Z,2.10
2019-03-30T04:44:47.109Z,2.00
2019-03-30T04:47:17.711Z,2.00
2019-03-30T05:42:44.086Z,2.00
2019-03-30T05:45:14.755Z,1.60
2019-03-30T05:47:45.354Z,1.50
2019-03-30T05:50:15.976Z,1.60
2019-03-30T05:52:46.481Z,1.80
2019-03-30T05:55:17.189Z,1.80
2019-03-30T05:57:47.975Z,1.80
2019-03-30T06:00:21.720Z,1.70
2019-03-30T06:02:52.490Z,1.70
2019-03-30T06:05:22.986Z,1.70
2019-03-30T06:07:53.505Z,1.70
2019-03-30T06:10:24.000Z,1.80
2019-03-30T06:12:54.480Z,1.80
2019-03-30T06:15:25.132Z,1.80
2019-03-30T06:17:55.678Z,1.90
2019-03-30T06:20:26.060Z,2.00
2019-03-30T06:22:58.494Z,2.10
2019-03-30T06:25:28.913Z,2.10
2019-03-30T06:27:59.395Z,2.20
2019-03-30T06:30:30.036Z,2.20
2019-03-30T06:33:00.608Z,2.30
2019-03-30T06:35:31.084Z,2.30
2019-03-30T06:38:01.731Z,2.40
2019-03-30T06:40:32.276Z,2.40
2019-03-30T06:43:07.542Z,2.50
2019-03-30T06:45:38.368Z,2.60
2019-03-30T06:48:08.621Z,2.70
2019-03-30T06:50:41.086Z,2.70
2019-03-30T06:53:13.640Z,2.80
2019-03-30T06:55:43.905Z,2.90
2019-03-30T06:58:17.688Z,2.90
2019-03-30T07:00:56.959Z,3.00
2019-03-30T07:03:33.032Z,3.10
2019-03-30T07:06:05.015Z,3.20
2019-03-30T07:08:36.438Z,3.40
2019-03-30T07:11:20.573Z,3.40
2019-03-30T07:13:42.223Z,3.40
2019-03-30T07:16:12.544Z,3.50
2019-03-30T07:18:58.059Z,3.60
2019-03-30T07:21:28.561Z,3.70
2019-03-30T07:23:58.778Z,3.70
2019-03-30T07:26:29.018Z,3.80
2019-03-30T07:29:05.092Z,3.90
2019-03-30T07:31:35.315Z,4.00
2019-03-30T07:34:07.416Z,4.20
2019-03-30T07:36:37.677Z,4.30
2019-03-30T07:39:08.243Z,4.40
2019-03-30T07:41:38.568Z,4.60
2019-03-30T07:44:09.238Z,4.60
2019-03-30T07:46:39.740Z,4.60
2019-03-30T07:49:10.182Z,4.70
2019-03-30T07:51:40.500Z,4.80
2019-03-30T07:54:11.015Z,4.90
2019-03-30T07:56:41.650Z,5.00
2019-03-30T07:59:12.225Z,5.20
2019-03-30T08:01:42.806Z,5.30
2019-03-30T08:04:13.444Z,5.40
2019-03-30T08:06:43.865Z,5.60
2019-03-30T08:09:14.220Z,5.70
2019-03-30T08:11:44.700Z,5.90
2019-03-30T08:14:15.057Z,6.10
2019-03-30T08:16:45.457Z,6.20
2019-03-30T08:19:16.263Z,6.30
2019-03-30T08:21:46.881Z,6.30
2019-03-30T08:24:17.371Z,6.40
2019-03-30T08:26:47.905Z,6.50
2019-03-30T08:29:18.553Z,6.70
2019-03-30T08:31:50.120Z,6.80
2019-03-30T08:34:20.706Z,6.90
2019-03-30T08:36:51.254Z,7.10
2019-03-30T08:39:21.764Z,7.20
2019-03-30T08:41:52.416Z,7.30
2019-03-30T08:44:22.955Z,7.40
2019-03-30T08:46:53.559Z,7.40
2019-03-30T08:49:24.305Z,7.60
2019-03-30T08:51:54.948Z,7.80
2019-03-30T08:54:25.451Z,8.00
2019-03-30T08:56:55.959Z,8.10
2019-03-30T08:59:26.497Z,8.30
2019-03-30T09:01:57.049Z,8.40
2019-03-30T09:04:27.455Z,8.50
2019-03-30T09:06:57.887Z,8.60
2019-03-30T09:09:28.430Z,8.70
2019-03-30T09:11:59.048Z,8.80
2019-03-30T09:14:29.498Z,8.90
2019-03-30T09:16:59.915Z,9.00
2019-03-30T09:19:30.358Z,9.10
2019-03-30T09:22:00.970Z,9.30
2019-03-30T09:24:31.475Z,9.50
2019-03-30T09:27:02.016Z,9.50
2019-03-30T09:29:32.536Z,9.60
2019-03-30T09:32:13.564Z,9.80
2019-03-30T09:34:34.928Z,9.90
2019-03-30T09:37:05.366Z,10.10
2019-03-30T09:39:35.775Z,10.20
2019-03-30T09:42:06.213Z,10.30
2019-03-30T09:44:36.656Z,10.50
2019-03-30T09:47:07.243Z,10.60
2019-03-30T09:49:37.776Z,10.80
2019-03-30T09:52:08.204Z,10.90
2019-03-30T09:54:38.624Z,11.00
2019-03-30T09:57:09.226Z,11.20
2019-03-30T09:59:39.641Z,11.30
2019-03-30T10:02:10.250Z,11.50
2019-03-30T10:04:40.770Z,11.70
2019-03-30T10:07:11.423Z,11.90
2019-03-30T10:09:41.910Z,12.00
2019-03-30T10:12:12.321Z,12.10
2019-03-30T10:14:42.801Z,12.30
2019-03-30T10:17:15.131Z,12.40
2019-03-30T10:19:53.097Z,12.60
2019-03-30T10:22:17.646Z,12.80
2019-03-30T10:24:48.076Z,13.00
2019-03-30T10:27:18.543Z,13.20
2019-03-30T10:29:49.105Z,13.30
2019-03-30T10:32:19.738Z,13.50
2019-03-30T10:34:50.245Z,13.70
2019-03-30T10:37:20.606Z,13.80
2019-03-30T10:39:51.147Z,14.00
2019-03-30T10:42:21.550Z,14.20
2019-03-30T10:44:51.947Z,14.40
2019-03-30T10:47:22.975Z,14.60
2019-03-30T10:49:53.670Z,14.80
2019-03-30T10:52:23.980Z,15.00
2019-03-30T10:54:54.406Z,15.00
2019-03-30T10:57:25.002Z,15.20
2019-03-30T10:59:55.510Z,15.30
2019-03-30T11:02:26.010Z,15.40
2019-03-30T11:04:56.603Z,15.40
2019-03-30T11:07:27.065Z,15.50
2019-03-30T11:09:57.462Z,15.60
2019-03-30T11:12:28.046Z,15.80
2019-03-30T11:14:58.833Z,15.90
2019-03-30T11:17:29.334Z,16.00
2019-03-30T11:19:59.798Z,16.20
2019-03-30T11:22:30.275Z,16.30
2019-03-30T11:25:07.483Z,16.40
2019-03-30T11:27:33.119Z,16.50
2019-03-30T11:30:03.655Z,16.60
2019-03-30T11:32:34.263Z,16.70
2019-03-30T11:35:04.936Z,16.80
2019-03-30T11:37:35.412Z,17.00
2019-03-30T11:40:06.191Z,17.20
2019-03-30T11:42:36.808Z,17.20
2019-03-30T11:45:07.539Z,17.40
2019-03-30T11:47:38.395Z,17.40
2019-03-30T11:50:09.138Z,17.50
2019-03-30T11:52:39.746Z,17.70
2019-03-30T11:55:21.233Z,17.80
2019-03-30T11:57:43.154Z,18.00
2019-03-30T12:00:14.010Z,18.20
2019-03-30T12:02:44.412Z,18.40
2019-03-30T12:05:14.957Z,18.40
2019-03-30T12:07:45.361Z,18.60
2019-03-30T12:10:16.186Z,18.70
2019-03-30T12:12:46.871Z,18.90
2019-03-30T12:15:17.360Z,19.10
2019-03-30T12:17:48.130Z,19.20
2019-03-30T12:20:18.986Z,19.30
2019-03-30T12:22:49.509Z,19.40
2019-03-30T12:25:20.034Z,19.60
2019-03-30T12:27:50.624Z,19.90
2019-03-30T12:30:21.124Z,19.90
2019-03-30T12:32:51.762Z,20.10
2019-03-30T12:35:22.420Z,20.30
2019-03-30T12:37:53.749Z,20.40
2019-03-30T12:40:26.301Z,20.60
2019-03-30T12:42:56.724Z,20.80
2019-03-30T12:45:27.394Z,20.90
2019-03-30T12:47:57.922Z,21.10
2019-03-30T12:50:28.430Z,21.30
2019-03-30T12:52:58.925Z,21.50
2019-03-30T12:55:29.668Z,21.60
2019-03-30T12:58:00.244Z,21.90
2019-03-30T13:00:30.753Z,22.10
2019-03-30T13:03:01.320Z,22.40
2019-03-30T13:05:31.706Z,22.70
2019-03-30T13:08:02.231Z,22.90
2019-03-30T13:10:32.880Z,23.30
2019-03-30T13:13:03.120Z,23.30
2019-03-30T13:15:33.537Z,23.50
2019-03-30T13:18:03.984Z,23.80
2019-03-30T13:20:34.459Z,24.50
2019-03-30T13:23:04.988Z,25.40
2019-03-30T13:25:35.662Z,26.30
2019-03-30T13:28:06.456Z,27.70
2019-03-30T13:30:37.107Z,28.90
2019-03-30T13:33:07.631Z,29.90
2019-03-30T13:35:38.128Z,30.80
2019-03-30T13:38:08.591Z,31.40
2019-03-30T13:40:39.132Z,31.60
2019-03-30T13:43:09.611Z,32.10
2019-03-30T13:45:40.025Z,32.40
2019-03-30T13:48:10.510Z,32.60
2019-03-30T13:50:41.002Z,33.00
2019-03-30T13:53:11.641Z,32.80
2019-03-30T13:55:42.196Z,32.80
2019-03-30T13:58:12.685Z,32.90
2019-03-30T14:00:43.325Z,33.00
2019-03-30T14:03:14.008Z,33.50
2019-03-30T14:05:44.424Z,33.70
2019-03-30T14:08:15.050Z,34.30
2019-03-30T14:10:45.675Z,34.50
2019-03-30T14:13:16.062Z,34.40
2019-03-30T14:15:46.618Z,34.60
2019-03-30T14:18:17.282Z,34.50
2019-03-30T14:20:47.886Z,34.20
2019-03-30T14:23:18.397Z,34.10
2019-03-30T14:25:48.848Z,34.30
2019-03-30T14:28:19.221Z,34.40
2019-03-30T14:30:49.773Z,34.40
2019-03-30T14:33:20.337Z,34.70
2019-03-30T14:35:50.857Z,34.70
2019-03-30T14:38:21.266Z,35.10
2019-03-30T14:40:52.129Z,35.40
2019-03-30T14:43:22.598Z,35.60
2019-03-30T14:45:53.054Z,35.50
2019-03-30T14:48:23.598Z,35.50
2019-03-30T14:50:54.219Z,35.60
2019-03-30T14:53:24.802Z,35.60
2019-03-30T14:55:55.518Z,36.00
2019-03-30T14:58:26.043Z,36.00
2019-03-30T15:00:56.648Z,36.00
2019-03-30T15:03:27.185Z,36.00
2019-03-30T15:05:57.748Z,36.20
2019-03-30T15:08:28.170Z,36.30
2019-03-30T15:10:58.685Z,36.30
2019-03-30T15:13:29.262Z,36.40
2019-03-30T15:15:59.898Z,36.40
2019-03-30T15:18:30.453Z,36.50
2019-03-30T15:21:00.855Z,36.60
2019-03-30T15:23:31.270Z,36.30
2019-03-30T15:26:01.858Z,35.90
2019-03-30T15:28:32.448Z,35.00
2019-03-30T15:31:02.998Z,33.90
2019-03-30T15:33:33.388Z,33.00
2019-03-30T15:36:03.938Z,32.40
2019-03-30T15:38:34.365Z,31.90
2019-03-30T15:41:04.824Z,31.00
2019-03-30T15:43:38.420Z,30.30
2019-03-30T15:46:07.587Z,29.80
2019-03-30T15:48:38.104Z,29.50
2019-03-30T15:51:08.658Z,29.10
2019-03-30T15:53:39.086Z,28.90
2019-03-30T15:56:09.596Z,29.10
2019-03-30T15:58:40.200Z,28.70
2019-03-30T16:01:10.643Z,27.80
2019-03-30T16:03:41.069Z,27.10
2019-03-30T16:06:11.627Z,26.40
2019-03-30T16:08:42.042Z,25.80
2019-03-30T16:11:12.531Z,25.20
2019-03-30T16:13:42.952Z,24.70
2019-03-30T16:16:13.773Z,24.40
2019-03-30T16:18:44.147Z,24.00
2019-03-30T16:21:14.660Z,23.80
2019-03-30T16:23:45.211Z,23.40
2019-03-30T16:26:15.847Z,23.20
2019-03-30T16:28:48.292Z,23.00
2019-03-30T16:31:18.786Z,22.80
2019-03-30T16:33:49.179Z,22.60
2019-03-30T16:36:22.015Z,22.30
2019-03-30T16:38:52.492Z,22.00
2019-03-30T16:41:23.009Z,21.80
2019-03-30T16:43:53.385Z,21.60
2019-03-30T16:46:23.871Z,21.40
2019-03-30T16:48:55.110Z,21.30
2019-03-30T16:51:25.646Z,21.10
2019-03-30T16:53:56.283Z,21.00
2019-03-30T16:56:26.796Z,20.70
2019-03-30T16:58:57.315Z,20.60
2019-03-30T17:01:27.863Z,20.30
2019-03-30T17:03:58.430Z,20.10
2019-03-30T17:06:29.115Z,19.80
2019-03-30T17:08:59.950Z,19.50
2019-03-30T17:11:30.473Z,19.20
2019-03-30T17:14:00.983Z,19.00
2019-03-30T17:16:31.844Z,18.80
2019-03-30T17:19:02.560Z,18.60
2019-03-30T17:21:33.095Z,18.40
2019-03-30T17:24:03.545Z,18.10
2019-03-30T17:26:34.090Z,17.90
2019-03-30T17:29:04.598Z,17.70
2019-03-30T17:31:35.131Z,17.60
2019-03-30T17:34:05.642Z,17.40
2019-03-30T17:36:36.176Z,17.30
2019-03-30T17:39:09.037Z,17.10
2019-03-30T17:41:39.442Z,17.00
2019-03-30T17:44:10.007Z,16.90
2019-03-30T17:46:40.337Z,16.80
2019-03-30T17:49:10.918Z,16.70
2019-03-30T17:51:41.379Z,16.50
2019-03-30T17:54:12.030Z,16.40
2019-03-30T17:56:42.442Z,16.20
2019-03-30T17:59:12.977Z,16.10
2019-03-30T18:01:43.810Z,15.90
2019-03-30T18:04:14.294Z,15.80
2019-03-30T18:06:44.871Z,15.70
2019-03-30T18:09:15.387Z,15.70
2019-03-30T18:11:45.914Z,15.60
2019-03-30T18:14:16.461Z,15.60
2019-03-30T18:16:47.093Z,15.60
2019-03-30T18:19:17.597Z,15.50
2019-03-30T18:21:48.215Z,15.40
2019-03-30T18:24:18.898Z,15.30
2019-03-30T18:26:49.297Z,15.20
2019-03-30T18:29:19.826Z,15.10
2019-03-30T18:31:50.520Z,15.00
2019-03-30T18:34:21.019Z,14.90
2019-03-30T18:36:52.892Z,14.80
2019-03-30T18:39:23.812Z,14.60
2019-03-30T18:41:54.313Z,14.60
2019-03-30T18:44:24.720Z,14.50
2019-03-30T18:46:55.175Z,14.50
2019-03-30T18:49:25.673Z,14.40
2019-03-30T18:51:56.764Z,14.30
2019-03-30T18:54:27.279Z,14.20
2019-03-30T18:56:57.808Z,14.10
2019-03-30T18:59:28.291Z,13.90
2019-03-30T19:01:58.954Z,13.70
2019-03-30T19:04:29.475Z,13.50
2019-03-30T19:07:00.212Z,13.40
2019-03-30T19:09:30.651Z,13.40
2019-03-30T19:12:01.247Z,13.50
2019-03-30T19:14:31.562Z,13.30
2019-03-30T19:17:02.147Z,13.10
2019-03-30T19:19:32.641Z,13.00
2019-03-30T19:22:03.362Z,13.00
2019-03-30T19:24:34.012Z,12.90
2019-03-30T19:27:04.616Z,12.90
2019-03-30T19:29:35.240Z,12.80
2019-03-30T19:32:05.885Z,12.70
2019-03-30T19:34:36.367Z,12.60
2019-03-30T19:37:06.696Z,12.50
2019-03-30T19:39:37.277Z,12.40
2019-03-30T19:42:07.810Z,12.20
2019-03-30T19:44:38.198Z,12.00
2019-03-30T19:47:08.574Z,12.00
2019-03-30T19:49:39.186Z,11.90
2019-03-30T19:52:09.727Z,11.80
2019-03-30T19:54:40.366Z,11.80
2019-03-30T19:57:10.881Z,11.60
2019-03-30T19:59:41.266Z,11.50
2019-03-30T20:02:12.270Z,11.30
2019-03-30T20:04:45.110Z,11.30
2019-03-30T20:07:15.535Z,11.30
2019-03-30T20:09:46.194Z,11.20
2019-03-30T20:12:16.811Z,11.10
2019-03-30T20:14:47.205Z,11.10
2019-03-30T20:17:17.915Z,11.00
2019-03-30T20:19:48.390Z,10.90
2019-03-30T20:22:18.961Z,10.90
2019-03-30T20:24:49.458Z,10.80
2019-03-30T20:27:19.955Z,10.70
2019-03-30T20:29:50.501Z,10.60
2019-03-30T20:32:21.046Z,10.60
2019-03-30T20:34:51.563Z,10.40
2019-03-30T20:37:22.114Z,10.30
2019-03-30T20:39:52.373Z,10.30
2019-03-30T20:42:23.067Z,10.30
2019-03-30T20:44:53.326Z,10.20
2019-03-30T20:47:23.724Z,10.10
2019-03-30T20:49:54.129Z,10.00
2019-03-30T20:52:24.538Z,9.90
2019-03-30T20:54:55.215Z,9.90
2019-03-30T20:57:25.718Z,9.80
2019-03-30T20:59:56.330Z,9.90
2019-03-30T21:02:26.875Z,9.80
2019-03-30T21:04:57.634Z,9.80
2019-03-30T21:07:27.885Z,9.80
2019-03-30T21:09:58.508Z,9.80
2019-03-30T21:12:28.848Z,9.60
2019-03-30T21:14:59.211Z,9.60
2019-03-30T21:17:29.645Z,9.60
2019-03-30T21:20:00.148Z,9.50
2019-03-30T21:22:30.865Z,9.40
2019-03-30T21:25:03.656Z,9.40
2019-03-30T21:27:34.191Z,9.30
2019-03-30T21:30:05.792Z,9.30
2019-03-30T21:32:36.402Z,9.20
2019-03-30T21:35:07.407Z,9.10
2019-03-30T21:37:37.744Z,9.20
2019-03-30T21:40:08.391Z,9.10
2019-03-30T21:42:39.022Z,9.00
2019-03-30T21:45:09.827Z,8.90
2019-03-30T21:47:40.297Z,8.90
2019-03-30T21:50:11.531Z,8.80
2019-03-30T21:52:42.023Z,8.80
2019-03-30T21:55:12.746Z,8.70
2019-03-30T21:57:43.187Z,8.70
2019-03-30T22:00:15.791Z,8.60
2019-03-30T22:02:46.271Z,8.50
2019-03-30T22:05:16.762Z,8.40
2019-03-30T22:07:47.340Z,8.40
2019-03-30T22:10:27.024Z,8.30
2019-03-30T22:12:57.665Z,8.20
2019-03-30T22:15:31.130Z,8.10
2019-03-30T22:18:01.549Z,8.00
2019-03-30T22:20:31.957Z,7.90
2019-03-30T22:23:02.515Z,7.90
2019-03-30T22:25:33.033Z,7.90
2019-03-30T22:28:03.453Z,7.90
2019-03-30T22:30:34.114Z,7.70
2019-03-30T22:33:04.644Z,7.50
2019-03-30T22:35:35.557Z,7.50
2019-03-30T22:38:06.209Z,7.50
2019-03-30T22:40:36.665Z,7.50
2019-03-30T22:43:07.035Z,7.50
2019-03-30T22:45:37.655Z,7.50
2019-03-30T22:48:08.130Z,7.40
2019-03-30T22:50:38.815Z,7.40
2019-03-30T22:53:09.182Z,7.30
2019-03-30T22:55:39.713Z,7.20
2019-03-30T22:58:10.104Z,7.20
2019-03-30T23:00:58.580Z,7.20
2019-03-30T23:03:29.219Z,7.20
2019-03-30T23:05:59.715Z,7.20
2019-03-30T23:08:30.295Z,7.20
2019-03-30T23:11:00.901Z,7.20
2019-03-30T23:13:33.784Z,7.20
2019-03-30T23:16:04.052Z,7.10
2019-03-30T23:18:34.230Z,7.10
2019-03-30T23:21:04.866Z,7.00
2019-03-30T23:23:35.104Z,7.00
2019-03-30T23:26:06.135Z,7.00
2019-03-30T23:28:36.657Z,7.00
2019-03-30T23:31:07.238Z,6.90
2019-03-30T23:33:37.662Z,6.90
2019-03-30T23:36:08.203Z,6.80
2019-03-30T23:38:38.740Z,6.80
2019-03-30T23:41:09.215Z,6.80
2019-03-30T23:43:39.824Z,6.70
2019-03-30T23:46:10.446Z,6.60
2019-03-30T23:48:41.028Z,6.60
2019-03-30T23:51:11.411Z,6.60
2019-03-30T23:53:42.034Z,6.50
2019-03-30T23:56:25.790Z,6.50
2019-03-30T23:58:56.410Z,6.50
